createdAt,value
2018-02-22T02:29:47.189Z,95246.35
2018-02-22T02:32:16.631Z,95249.01
2018-02-22T02:34:46.046Z,95246.61
2018-02-22T02:37:15.478Z,95245.45
2018-02-22T02:39:44.896Z,95238.27
2018-02-22T02:42:14.328Z,95240.60
2018-02-22T02:44:43.742Z,95232.31
2018-02-22T02:47:13.153Z,95232.63
2018-02-22T02:49:42.582Z,95231.62
2018-02-22T02:52:11.997Z,95227.95
2018-02-22T02:54:41.546Z,95224.75
2018-02-22T02:57:10.957Z,95220.30
2018-02-22T02:59:40.385Z,95219.34
2018-02-22T03:02:09.797Z,95218.02
2018-02-22T03:04:39.232Z,95212.03
2018-02-22T03:07:08.644Z,95210.72
2018-02-22T03:09:38.054Z,95207.49
2018-02-22T03:12:07.489Z,95203.58
2018-02-22T03:14:36.900Z,95195.94
2018-02-22T03:17:06.329Z,95197.52
2018-02-22T03:19:35.740Z,95193.64
2018-02-22T03:22:05.166Z,95197.67
2018-02-22T03:24:34.593Z,95195.47
2018-02-22T03:27:04.025Z,95198.60
2018-02-22T03:29:33.441Z,95194.41
2018-02-22T03:32:02.868Z,95198.07
2018-02-22T03:34:32.300Z,95200.42
2018-02-22T03:37:01.718Z,95192.23
2018-02-22T03:39:31.148Z,95194.05
2018-02-22T03:42:00.556Z,95188.30
2018-02-22T03:44:29.916Z,95194.08
2018-02-22T03:46:59.245Z,95191.50
2018-02-22T03:49:28.596Z,95176.64
2018-02-22T03:51:57.941Z,95185.98
2018-02-22T03:54:27.152Z,95186.69
2018-02-22T03:56:56.676Z,95183.56
2018-02-22T03:59:26.008Z,95184.78
2018-02-22T04:01:55.366Z,95187.06
2018-02-22T04:04:24.753Z,95191.59
2018-02-22T04:06:54.097Z,95187.83
2018-02-22T04:09:23.469Z,95187.19
2018-02-22T04:11:52.813Z,95183.98
2018-02-22T04:14:22.156Z,95181.65
2018-02-22T04:16:51.485Z,95182.89
2018-02-22T04:19:20.648Z,95195.77
2018-02-22T04:21:49.801Z,95195.94
2018-02-22T04:24:18.792Z,95187.20
2018-02-22T04:26:48.133Z,95178.09
2018-02-22T04:29:17.485Z,95196.00
2018-02-22T04:31:46.817Z,95188.94
2018-02-22T04:34:16.156Z,95192.09
2018-02-22T04:36:45.514Z,95185.31
2018-02-22T04:39:14.852Z,95192.80
2018-02-22T04:41:44.263Z,95194.05
2018-02-22T04:44:13.592Z,95197.81
2018-02-22T04:46:42.944Z,95198.98
2018-02-22T04:49:12.280Z,95204.77
2018-02-22T04:51:41.625Z,95200.30
2018-02-22T04:54:10.983Z,95196.95
2018-02-22T04:56:40.322Z,95196.45
2018-02-22T04:59:09.678Z,95197.30
2018-02-22T05:01:39.008Z,95199.55
2018-02-22T05:04:08.367Z,95200.25
2018-02-22T05:06:37.913Z,95200.13
2018-02-22T05:09:07.244Z,95205.47
2018-02-22T05:11:36.605Z,95202.77
2018-02-22T05:14:05.785Z,95201.13
2018-02-22T05:16:35.420Z,95205.72
2018-02-22T05:19:04.760Z,95203.36
2018-02-22T05:21:34.219Z,95198.02
2018-02-22T05:24:03.545Z,95204.61
2018-02-22T05:26:32.700Z,95199.73
2018-02-22T05:29:02.053Z,95200.69
2018-02-22T05:31:31.385Z,95193.58
2018-02-22T05:34:00.813Z,95192.83
2018-02-22T05:36:30.140Z,95189.98
2018-02-22T05:38:59.497Z,95191.53
2018-02-22T05:41:28.829Z,95186.28
2018-02-22T05:43:58.165Z,95184.84
2018-02-22T05:46:27.548Z,95181.41
2018-02-22T05:48:56.889Z,95182.21
2018-02-22T05:51:26.245Z,95183.36
2018-02-22T05:53:55.581Z,95191.03
2018-02-22T05:56:24.935Z,95187.20
2018-02-22T05:58:54.272Z,95187.73
2018-02-22T06:01:23.624Z,95193.55
2018-02-22T06:03:53.055Z,95196.27
2018-02-22T06:06:22.381Z,95198.77
2018-02-22T06:08:51.758Z,95190.00
2018-02-22T06:11:21.085Z,95194.82
2018-02-22T06:13:50.488Z,95202.34
2018-02-22T06:16:20.047Z,95200.88
2018-02-22T06:18:49.489Z,95199.63
2018-02-22T06:21:18.808Z,95201.28
2018-02-22T06:23:48.352Z,95195.59
2018-02-22T06:26:17.705Z,95205.04
2018-02-22T06:28:47.041Z,95207.46
2018-02-22T06:31:16.397Z,95202.83
2018-02-22T06:33:45.736Z,95207.03
2018-02-22T06:36:15.077Z,95207.03
2018-02-22T06:38:44.468Z,95208.42
2018-02-22T06:41:13.918Z,95199.14
2018-02-22T06:43:43.262Z,95211.53
2018-02-22T06:46:12.593Z,95209.39
2018-02-22T06:48:41.933Z,95210.14
2018-02-22T06:51:11.286Z,95215.52
2018-02-22T06:53:40.616Z,95216.88
2018-02-22T06:56:10.033Z,95221.33
2018-02-22T06:58:39.361Z,95221.04
2018-02-22T07:01:08.724Z,95213.43
2018-02-22T07:03:38.146Z,95221.60
2018-02-22T07:06:07.472Z,95218.80
2018-02-22T07:08:36.820Z,95230.33
2018-02-22T07:11:06.161Z,95225.20
2018-02-22T07:13:35.517Z,95227.16
2018-02-22T07:16:04.849Z,95227.94
2018-02-22T07:18:34.200Z,95227.00
2018-02-22T07:21:03.545Z,95231.14
2018-02-22T07:23:32.884Z,95225.08
2018-02-22T07:26:02.240Z,95229.46
2018-02-22T07:28:31.581Z,95222.69
2018-02-22T07:31:00.740Z,95222.81
2018-02-22T07:33:30.076Z,95219.80
2018-02-22T07:35:59.432Z,95216.47
2018-02-22T07:38:28.576Z,95220.73
2018-02-22T07:40:57.917Z,95222.78
2018-02-22T07:43:27.367Z,95213.30
2018-02-22T07:45:56.692Z,95216.97
2018-02-22T07:48:26.045Z,95217.34
2018-02-22T07:50:55.475Z,95216.75
2018-02-22T07:53:24.811Z,95218.86
2018-02-22T07:55:54.153Z,95221.01
2018-02-22T07:58:23.485Z,95207.46
2018-02-22T08:00:52.837Z,95211.25
2018-02-22T08:03:22.177Z,95211.72
2018-02-22T08:05:51.532Z,95218.80
2018-02-22T08:08:20.868Z,95210.09
2018-02-22T08:10:50.216Z,95217.15
2018-02-22T08:13:19.551Z,95216.73
2018-02-22T08:15:48.901Z,95212.84
2018-02-22T08:18:18.284Z,95216.67
2018-02-22T08:20:47.784Z,95212.37
2018-02-22T08:23:17.137Z,95213.24
2018-02-22T08:25:46.519Z,95210.61
2018-02-22T08:28:15.906Z,95214.81
2018-02-22T08:30:45.412Z,95203.16
2018-02-22T08:33:14.764Z,95208.07
2018-02-22T08:35:44.100Z,95203.19
2018-02-22T08:38:13.444Z,95201.41
2018-02-22T08:40:42.793Z,95208.14
2018-02-22T08:43:12.134Z,95199.37
2018-02-22T08:45:41.486Z,95199.43
2018-02-22T08:48:10.820Z,95198.05
2018-02-22T08:50:40.177Z,95198.05
2018-02-22T08:53:09.716Z,95204.14
2018-02-22T08:55:39.150Z,95204.34
2018-02-22T08:58:08.488Z,95200.56
2018-02-22T09:00:37.824Z,95205.11
2018-02-22T09:03:07.241Z,95204.23
2018-02-22T09:05:36.739Z,95202.16
2018-02-22T09:08:06.097Z,95208.94
2018-02-22T09:10:35.265Z,95201.73
2018-02-22T09:13:04.589Z,95203.82
2018-02-22T09:15:33.967Z,95210.86
2018-02-22T09:18:03.101Z,95206.72
2018-02-22T09:20:32.456Z,95202.84
2018-02-22T09:23:01.789Z,95196.91
2018-02-22T09:25:31.161Z,95203.25
2018-02-22T09:28:00.577Z,95203.64
2018-02-22T09:30:29.914Z,95204.66
2018-02-22T09:32:59.284Z,95210.08
2018-02-22T09:35:28.609Z,95208.36
2018-02-22T09:37:57.988Z,95214.72
2018-02-22T09:40:27.318Z,95209.66
2018-02-22T09:42:56.672Z,95209.54
2018-02-22T09:45:25.824Z,95221.41
2018-02-22T09:47:55.156Z,95213.02
2018-02-22T09:50:24.566Z,95209.45
2018-02-22T09:52:53.903Z,95209.36
2018-02-22T09:55:23.260Z,95210.71
2018-02-22T09:57:52.592Z,95217.14
2018-02-22T10:00:21.952Z,95217.06
2018-02-22T10:02:51.288Z,95220.17
2018-02-22T10:05:20.633Z,95218.39
2018-02-22T10:07:50.018Z,95225.28
2018-02-22T10:10:19.424Z,95229.35
2018-02-22T10:12:48.830Z,95226.97
2018-02-22T10:15:18.161Z,95222.52
2018-02-22T10:17:47.333Z,95223.70
2018-02-22T10:20:16.665Z,95217.75
2018-02-22T10:22:46.029Z,95227.97
2018-02-22T10:25:15.365Z,95225.31
2018-02-22T10:27:44.701Z,95229.48
2018-02-22T10:30:14.053Z,95229.08
2018-02-22T10:32:43.400Z,95226.08
2018-02-22T10:35:12.793Z,95226.64
2018-02-22T10:37:42.138Z,95228.00
2018-02-22T10:40:11.489Z,95227.70
2018-02-22T10:42:40.645Z,95228.30
2018-02-22T10:45:09.978Z,95228.98
2018-02-22T10:47:39.330Z,95231.52
2018-02-22T10:50:08.729Z,95230.63
2018-02-22T10:52:38.227Z,95220.22
2018-02-22T10:55:07.573Z,95221.69
2018-02-22T10:57:36.925Z,95226.77
2018-02-22T11:00:05.573Z,95225.36
2018-02-22T11:02:40.296Z,95226.62
2018-02-22T11:05:09.633Z,95229.30
2018-02-22T11:07:38.969Z,95224.00
2018-02-22T11:10:08.320Z,95221.36
2018-02-22T11:12:37.653Z,95217.37
2018-02-22T11:15:07.005Z,95220.84
2018-02-22T11:17:36.348Z,95214.52
2018-02-22T11:20:05.705Z,95219.12
2018-02-22T11:22:35.033Z,95215.39
2018-02-22T11:25:04.374Z,95214.70
2018-02-22T11:27:33.726Z,95214.62
2018-02-22T11:30:03.095Z,95207.31
2018-02-22T11:32:32.440Z,95215.58
2018-02-22T11:35:01.777Z,95210.80
2018-02-22T11:37:31.133Z,95189.84
2018-02-22T11:40:00.504Z,95201.13
2018-02-22T11:42:29.828Z,95204.33
2018-02-22T11:44:59.184Z,95198.67
2018-02-22T11:47:28.521Z,95195.95
2018-02-22T11:49:57.907Z,95196.89
2018-02-22T11:52:27.228Z,95203.08
2018-02-22T11:54:56.585Z,95198.44
2018-02-22T11:57:25.925Z,95198.80
2018-02-22T11:59:55.265Z,95195.06
2018-02-22T12:02:24.622Z,95198.36
2018-02-22T12:04:54.021Z,95194.52
2018-02-22T12:07:23.360Z,95194.50
2018-02-22T12:09:52.697Z,95193.47
2018-02-22T12:12:22.131Z,95192.84
2018-02-22T12:14:51.474Z,95190.22
2018-02-22T12:17:20.813Z,95189.13
2018-02-22T12:19:50.153Z,95200.05
2018-02-22T12:22:19.509Z,95183.73
2018-02-22T12:24:48.849Z,95181.90
2018-02-22T12:27:18.184Z,95185.28
2018-02-22T12:29:47.542Z,95195.84
2018-02-22T12:32:16.872Z,95195.22
2018-02-22T12:34:46.213Z,95190.75
2018-02-22T12:37:15.561Z,95186.71
2018-02-22T12:39:44.904Z,95191.87
2018-02-22T12:42:14.233Z,95192.14
2018-02-22T12:44:43.593Z,95193.27
2018-02-22T12:47:12.924Z,95195.39
2018-02-22T12:49:42.267Z,95192.05
2018-02-22T12:52:11.622Z,95187.00
2018-02-22T12:54:40.953Z,95186.28
2018-02-22T12:57:10.297Z,95193.16
2018-02-22T13:02:14.290Z,95192.24
2018-02-22T13:04:43.645Z,95190.58
2018-02-22T13:07:12.976Z,95187.69
2018-02-22T13:09:42.313Z,95187.23
2018-02-22T13:12:11.669Z,95184.67
2018-02-22T13:14:41.000Z,95182.38
2018-02-22T13:17:10.336Z,95180.44
2018-02-22T13:19:39.502Z,95183.78
2018-02-22T13:22:08.905Z,95178.80
2018-02-22T13:24:38.233Z,95177.03
2018-02-22T13:27:07.248Z,95184.05
2018-02-22T13:29:36.603Z,95181.88
2018-02-22T13:32:05.924Z,95186.45
2018-02-22T13:34:36.068Z,95180.99
2018-02-22T13:37:16.556Z,95181.33
2018-02-22T13:39:45.909Z,95173.34
2018-02-22T13:42:15.244Z,95179.00
2018-02-22T13:44:55.612Z,95183.95
2018-02-22T13:47:25.166Z,95188.22
2018-02-22T13:50:05.633Z,95176.27
2018-02-22T13:52:35.026Z,95175.05
2018-02-22T13:55:04.349Z,95178.72
2018-02-22T13:57:33.709Z,95179.73
2018-02-22T14:00:03.216Z,95180.14
2018-02-22T14:02:32.556Z,95179.03
2018-02-22T14:05:01.939Z,95173.35
2018-02-22T14:07:31.261Z,95177.27
2018-02-22T14:10:00.606Z,95181.48
2018-02-22T14:12:29.956Z,95178.83
2018-02-22T14:14:59.300Z,95176.89
2018-02-22T14:17:28.637Z,95179.91
2018-02-22T14:19:57.993Z,95169.21
2018-02-22T14:22:27.325Z,95174.84
2018-02-22T14:24:56.756Z,95166.31
2018-02-22T14:27:26.100Z,95172.17
2018-02-22T14:29:55.438Z,95174.81
2018-02-22T14:32:24.773Z,95168.66
2018-02-22T14:34:54.136Z,95177.36
2018-02-22T14:37:23.476Z,95182.28
2018-02-22T14:39:52.812Z,95183.94
2018-02-22T14:42:22.175Z,95186.94
2018-02-22T14:44:51.532Z,95185.88
2018-02-22T14:47:20.869Z,95190.67
2018-02-22T14:49:50.232Z,95188.41
2018-02-22T14:52:19.572Z,95176.28
2018-02-22T14:54:48.909Z,95176.17
2018-02-22T14:57:18.260Z,95179.03
2018-02-22T14:59:47.821Z,95177.88
2018-02-22T15:02:22.728Z,95177.37
2018-02-22T15:04:52.060Z,95179.61
2018-02-22T15:07:21.420Z,95179.61
2018-02-22T15:09:50.785Z,95176.45
2018-02-22T15:12:20.116Z,95181.00
2018-02-22T15:14:49.453Z,95179.72
2018-02-22T15:17:18.832Z,95185.80
2018-02-22T15:19:48.156Z,95190.13
2018-02-22T15:22:17.497Z,95187.52
2018-02-22T15:24:46.865Z,95187.55
2018-02-22T15:27:16.246Z,95189.31
2018-02-22T15:29:45.576Z,95191.01
2018-02-22T15:32:14.948Z,95194.27
2018-02-22T15:34:44.338Z,95201.98
2018-02-22T15:37:13.716Z,95198.42
2018-02-22T15:39:43.092Z,95208.10
2018-02-22T15:42:12.629Z,95214.99
2018-02-22T15:44:42.016Z,95209.89
2018-02-22T15:47:11.365Z,95208.17
2018-02-22T15:49:40.709Z,95214.56
2018-02-22T15:52:10.225Z,95213.18
2018-02-22T15:54:39.575Z,95213.69
2018-02-22T15:57:09.112Z,95212.23
2018-02-22T15:59:38.452Z,95211.97
2018-02-22T16:02:07.843Z,95214.39
2018-02-22T16:04:37.173Z,95211.50
2018-02-22T16:07:06.512Z,95215.16
2018-02-22T16:09:35.869Z,95222.13
2018-02-22T16:12:05.222Z,95222.39
2018-02-22T16:14:34.376Z,95223.77
2018-02-22T16:17:03.729Z,95222.28
2018-02-22T16:19:33.092Z,95229.14
2018-02-22T16:22:02.440Z,95221.62
2018-02-22T16:24:31.806Z,95220.77
2018-02-22T16:27:01.141Z,95221.40
2018-02-22T16:29:30.284Z,95221.94
2018-02-22T16:31:59.645Z,95222.87
2018-02-22T16:34:28.982Z,95221.81
2018-02-22T16:36:58.328Z,95223.63
2018-02-22T16:39:27.718Z,95227.50
2018-02-22T16:41:56.697Z,95228.34
2018-02-22T16:44:26.185Z,95224.49
2018-02-22T16:46:55.537Z,95239.81
2018-02-22T16:49:24.890Z,95233.94
2018-02-22T16:51:54.229Z,95235.55
2018-02-22T16:54:23.585Z,95243.38
2018-02-22T16:56:52.924Z,95244.00
2018-02-22T16:59:22.257Z,95250.78
2018-02-22T17:01:51.618Z,95247.67
2018-02-22T17:04:21.008Z,95252.23
2018-02-22T17:06:50.477Z,95250.31
2018-02-22T17:09:19.854Z,95247.70
2018-02-22T17:11:49.417Z,95249.56
2018-02-22T17:14:18.565Z,95251.12
2018-02-22T17:16:47.928Z,95259.23
2018-02-22T17:19:17.269Z,95257.05
2018-02-22T17:21:46.608Z,95261.28
2018-02-22T17:24:15.965Z,95267.93
2018-02-22T17:26:50.889Z,95266.03
2018-02-22T17:29:25.949Z,95270.66
2018-02-22T17:32:00.720Z,95267.14
2018-02-22T17:34:29.884Z,95270.69
2018-02-22T17:37:06.637Z,95269.27
2018-02-22T17:39:41.517Z,95271.28
2018-02-22T17:42:10.688Z,95270.76
2018-02-22T17:44:39.841Z,95284.50
2018-02-22T17:47:09.008Z,95264.52
2018-02-22T17:49:38.349Z,95274.58
2018-02-22T17:52:07.681Z,95277.94
2018-02-22T17:54:37.033Z,95278.94
2018-02-22T17:57:06.189Z,95278.50
2018-02-22T17:59:35.332Z,95273.75
2018-02-22T18:02:04.169Z,95283.22
2018-02-22T18:04:33.504Z,95284.61
2018-02-22T18:07:02.653Z,95281.23
2018-02-22T18:09:31.821Z,95275.39
2018-02-22T18:12:01.166Z,95279.83
2018-02-22T18:14:30.317Z,95278.59
2018-02-22T18:16:59.673Z,95276.05
2018-02-22T18:19:29.009Z,95275.36
2018-02-22T18:21:58.345Z,95276.48
2018-02-22T18:24:27.705Z,95276.76
2018-02-22T18:26:56.680Z,95279.65
2018-02-22T18:29:26.037Z,95275.20
2018-02-22T18:31:55.372Z,95278.72
2018-02-22T18:34:24.780Z,95277.26
2018-02-22T18:36:54.280Z,95269.77
2018-02-22T18:39:28.608Z,95276.48
2018-02-22T18:45:13.556Z,95266.31
2018-02-22T18:47:42.913Z,95262.49
2018-02-22T18:50:12.269Z,95265.05
2018-02-22T18:52:41.620Z,95259.77
2018-02-22T18:55:10.960Z,95258.55
2018-02-22T18:57:40.323Z,95256.50
2018-02-22T19:00:09.660Z,95256.03
2018-02-22T19:02:39.015Z,95262.00
2018-02-22T19:05:08.353Z,95261.13
2018-02-22T19:07:37.705Z,95253.98
2018-02-22T19:10:07.076Z,95257.08
2018-02-22T19:12:36.427Z,95259.97
2018-02-22T19:15:05.424Z,95262.40
2018-02-22T19:17:34.761Z,95254.56
2018-02-22T19:20:03.740Z,95257.92
2018-02-22T19:22:33.114Z,95251.24
2018-02-22T19:25:02.449Z,95250.43
2018-02-22T19:27:31.789Z,95261.84
2018-02-22T19:30:01.144Z,95256.20
2018-02-22T19:32:30.486Z,95258.28
2018-02-22T19:34:59.835Z,95247.38
2018-02-22T19:37:29.184Z,95251.17
2018-02-22T19:39:58.357Z,95249.69
2018-02-22T19:42:27.713Z,95252.14
2018-02-22T19:44:57.130Z,95252.11
2018-02-22T19:47:26.489Z,95251.14
2018-02-22T19:49:55.909Z,95244.06
2018-02-22T19:52:25.270Z,95234.58
2018-02-22T19:54:54.644Z,95243.63
2018-02-22T19:57:24.016Z,95241.70
2018-02-22T19:59:53.382Z,95246.67
2018-02-22T20:02:22.740Z,95247.66
2018-02-22T20:04:52.072Z,95234.17
2018-02-22T20:07:21.433Z,95247.75
2018-02-22T20:09:50.768Z,95249.22
2018-02-22T20:12:20.108Z,95249.56
2018-02-22T20:14:49.468Z,95245.69
2018-02-22T20:17:19.037Z,95248.54
2018-02-22T20:19:48.706Z,95247.61
2018-02-22T20:22:18.053Z,95249.03
2018-02-22T20:24:47.392Z,95260.04
2018-02-22T20:27:16.744Z,95242.85
2018-02-22T20:29:46.089Z,95236.23
2018-02-22T20:32:15.516Z,95241.73
2018-02-22T20:34:44.841Z,95239.28
2018-02-22T20:37:14.181Z,95235.30
2018-02-22T20:39:43.548Z,95234.25
2018-02-22T20:42:12.872Z,95237.41
2018-02-22T20:44:42.224Z,95231.57
2018-02-22T20:47:11.701Z,95234.59
2018-02-22T20:49:40.876Z,95227.84
2018-02-22T20:52:10.453Z,95224.27
2018-02-22T20:54:39.626Z,95231.02
2018-02-22T20:57:08.768Z,95233.62
2018-02-22T20:59:37.937Z,95229.43
2018-02-22T21:02:07.193Z,95225.67
2018-02-22T21:04:36.368Z,95230.08
2018-02-22T21:07:05.743Z,95228.44
2018-02-22T21:09:35.093Z,95233.78
2018-02-22T21:12:04.432Z,95224.02
2018-02-22T21:14:33.784Z,95233.97
2018-02-22T21:17:03.125Z,95225.20
2018-02-22T21:19:32.554Z,95226.11
2018-02-22T21:22:01.889Z,95218.31
2018-02-22T21:24:31.221Z,95229.40
2018-02-22T21:27:00.577Z,95229.55
2018-02-22T21:29:29.967Z,95234.90
2018-02-22T21:31:59.398Z,95232.04
2018-02-22T21:34:28.757Z,95234.68
2018-02-22T21:36:58.092Z,95227.59
2018-02-22T21:39:27.470Z,95235.15
2018-02-22T21:41:56.821Z,95224.14
2018-02-22T21:44:26.161Z,95234.05
2018-02-22T21:46:55.498Z,95227.00
2018-02-22T21:49:24.948Z,95236.95
2018-02-22T21:51:54.302Z,95238.78
2018-02-22T21:54:23.640Z,95237.52
2018-02-22T21:56:52.989Z,95231.39
2018-02-22T21:59:22.319Z,95234.45
2018-02-22T22:01:51.681Z,95231.20
2018-02-22T22:04:21.064Z,95238.06
2018-02-22T22:06:50.710Z,95237.26
2018-02-22T22:09:20.072Z,95232.66
2018-02-22T22:11:49.444Z,95225.39
2018-02-22T22:14:18.879Z,95225.11
2018-02-22T22:16:48.322Z,95218.62
2018-02-22T22:19:17.645Z,95213.21
2018-02-22T22:21:46.985Z,95220.17
2018-02-22T22:24:16.344Z,95223.50
2018-02-22T22:26:45.693Z,95222.56
2018-02-22T22:29:15.021Z,95220.64
2018-02-22T22:31:44.425Z,95219.55
2018-02-22T22:34:13.765Z,95218.62
2018-02-22T22:36:43.145Z,95215.27
2018-02-22T22:39:12.444Z,95215.23
2018-02-22T22:41:41.785Z,95209.45
2018-02-22T22:44:11.385Z,95216.81
2018-02-22T22:46:40.892Z,95211.09
2018-02-22T22:49:10.232Z,95216.16
2018-02-22T22:51:40.482Z,95216.10
2018-02-22T22:54:09.839Z,95216.94
2018-02-22T22:56:39.200Z,95217.38
2018-02-22T22:59:08.551Z,95212.34
2018-02-22T23:01:37.904Z,95219.23
2018-02-22T23:04:07.274Z,95219.79
2018-02-22T23:06:36.612Z,95220.95
2018-02-22T23:09:05.264Z,95219.42
2018-02-22T23:11:34.624Z,95219.42
2018-02-22T23:14:03.961Z,95216.13
2018-02-22T23:16:33.296Z,95214.45
2018-02-22T23:19:02.655Z,95211.03
2018-02-22T23:21:31.994Z,95207.95
2018-02-22T23:24:01.325Z,95205.41
2018-02-22T23:26:30.672Z,95207.52
2018-02-22T23:29:00.017Z,95212.17
2018-02-22T23:31:29.184Z,95213.70
2018-02-22T23:33:58.441Z,95214.66
2018-02-22T23:36:27.777Z,95213.45
2018-02-22T23:38:56.941Z,95208.14
2018-02-22T23:41:31.625Z,95209.72
2018-02-22T23:44:00.813Z,95212.76
2018-02-22T23:46:29.960Z,95213.97
2018-02-22T23:48:59.339Z,95207.36
2018-02-22T23:51:28.684Z,95212.15
2018-02-22T23:53:58.013Z,95201.86
2018-02-22T23:56:26.546Z,95205.88
2018-02-22T23:58:56.028Z,95200.66
